Time;durP1;ratioP1;P1;durP2;ratioP2;P2;SDS_P1;SDS_P2;PMS_P1;PMS_P2;Temp;Humidity;BMP_temperature;BMP_pressure;BME280_temperature;BME280_humidity;BME280_pressure;Samples;Min_cycle;Max_cycle;Signal;HPM_P1;HPM_P2
2021/07/11 00:01:43;;;;;;;25.47;14.80;;;;;;;;;;3584301;40;20027;-62
2021/07/11 00:04:08;;;;;;;20.17;14.02;;;;;;;;;;3585278;40;20033;-62
2021/07/11 00:06:36;;;;;;;23.03;15.27;;;;;;;;;;3583535;40;20396;-62
2021/07/11 00:09:02;;;;;;;24.17;14.55;;;;;;;;;;3583437;40;20036;-61
2021/07/11 00:11:27;;;;;;;21.58;14.70;;;;;;;;;;3583859;40;20024;-62
2021/07/11 00:13:52;;;;;;;24.98;14.43;;;;;;;;;;3590967;39;20121;-61
2021/07/11 00:16:18;;;;;;;22.23;14.77;;;;;;;;;;3592159;39;20205;-67
2021/07/11 00:18:43;;;;;;;21.53;14.63;;;;;;;;;;3583031;40;20290;-66
2021/07/11 00:21:08;;;;;;;24.67;13.63;;;;;;;;;;3586119;40;20690;-66
2021/07/11 00:23:33;;;;;;;19.90;13.63;;;;;;;;;;3583410;40;20497;-66
2021/07/11 00:25:58;;;;;;;19.80;14.57;;;;;;;;;;3583836;40;20274;-66
2021/07/11 00:28:24;;;;;;;21.97;14.47;;;;;;;;;;3585321;40;20076;-61
2021/07/11 00:30:49;;;;;;;19.73;13.18;;;;;;;;;;3583306;40;20277;-62
2021/07/11 00:33:14;;;;;;;27.63;13.70;;;;;;;;;;3584345;40;20410;-62
2021/07/11 00:35:39;;;;;;;25.00;13.10;;;;;;;;;;3586560;40;20275;-62
2021/07/11 00:38:05;;;;;;;22.13;13.83;;;;;;;;;;3582725;40;20032;-62
2021/07/11 00:40:31;;;;;;;20.52;13.65;;;;;;;;;;3584394;40;20033;-62
2021/07/11 00:42:57;;;;;;;20.98;13.88;;;;;;;;;;3584587;40;20313;-68
2021/07/11 00:45:24;;;;;;;19.48;13.05;;;;;;;;;;3583644;40;20033;-67
2021/07/11 00:47:49;;;;;;;22.67;13.95;;;;;;;;;;3585897;40;20119;-67
2021/07/11 00:50:15;;;;;;;21.15;13.32;;;;;;;;;;3583838;40;20040;-66
2021/07/11 00:52:41;;;;;;;16.85;13.15;;;;;;;;;;3585405;40;20153;-66
2021/07/11 00:55:12;;;;;;;23.10;13.18;;;;;;;;;;3583979;40;20040;-62
2021/07/11 00:57:38;;;;;;;20.70;13.65;;;;;;;;;;3584295;40;20032;-62
2021/07/11 01:00:04;;;;;;;19.67;12.82;;;;;;;;;;3586120;40;20031;-62
2021/07/11 01:02:36;;;;;;;19.38;13.38;;;;;;;;;;3584764;40;20091;-62
2021/07/11 01:05:03;;;;;;;18.67;12.32;;;;;;;;;;3600420;39;20069;-66
2021/07/11 01:07:28;;;;;;;19.27;12.67;;;;;;;;;;3584467;40;20036;-62
2021/07/11 01:09:53;;;;;;;19.55;12.65;;;;;;;;;;3583475;40;20145;-66
2021/07/11 01:12:20;;;;;;;18.33;12.20;;;;;;;;;;3585195;40;20144;-67
2021/07/11 01:14:45;;;;;;;21.50;13.30;;;;;;;;;;3585685;40;20032;-62
2021/07/11 01:17:13;;;;;;;22.58;13.30;;;;;;;;;;3584047;40;20036;-62
2021/07/11 01:19:39;;;;;;;17.67;12.87;;;;;;;;;;3584176;40;20035;-62
2021/07/11 01:22:05;;;;;;;21.55;13.88;;;;;;;;;;3583488;40;20282;-62
2021/07/11 01:24:35;;;;;;;19.98;13.50;;;;;;;;;;3600195;39;20867;-62
2021/07/11 01:27:01;;;;;;;19.75;13.02;;;;;;;;;;3583902;40;20406;-66
2021/07/11 01:29:27;;;;;;;22.17;13.63;;;;;;;;;;3582640;40;20017;-66
2021/07/11 01:31:52;;;;;;;20.95;13.20;;;;;;;;;;3582525;40;20258;-66
2021/07/11 01:34:20;;;;;;;18.83;12.63;;;;;;;;;;3586315;40;20647;-66
2021/07/11 01:36:45;;;;;;;23.23;13.38;;;;;;;;;;3592048;39;20133;-66
2021/07/11 01:39:15;;;;;;;20.70;13.88;;;;;;;;;;3584682;40;20029;-66
2021/07/11 01:41:43;;;;;;;20.00;14.07;;;;;;;;;;3584084;40;20036;-66
2021/07/11 01:44:10;;;;;;;24.67;12.75;;;;;;;;;;3583681;40;20028;-66
2021/07/11 01:46:36;;;;;;;24.30;14.75;;;;;;;;;;3585035;40;20036;-67
2021/07/11 01:49:01;;;;;;;18.30;12.85;;;;;;;;;;3584890;40;20053;-66
2021/07/11 01:51:28;;;;;;;21.40;12.68;;;;;;;;;;3583715;40;20040;-66
2021/07/11 01:53:55;;;;;;;19.70;13.10;;;;;;;;;;3585019;40;20028;-66
2021/07/11 01:56:21;;;;;;;18.92;13.00;;;;;;;;;;3583608;40;20071;-66
2021/07/11 01:58:48;;;;;;;18.00;13.15;;;;;;;;;;3585722;40;20036;-65
2021/07/11 02:01:16;;;;;;;26.50;12.60;;;;;;;;;;3585367;40;20076;-67
2021/07/11 02:03:42;;;;;;;22.80;13.20;;;;;;;;;;3597762;39;20834;-66
2021/07/11 02:06:08;;;;;;;19.42;13.35;;;;;;;;;;3585841;40;20028;-66
2021/07/11 02:08:37;;;;;;;21.40;13.77;;;;;;;;;;3587547;40;20033;-66
2021/07/11 02:11:03;;;;;;;23.35;13.75;;;;;;;;;;3584672;40;20137;-66
2021/07/11 02:13:33;;;;;;;20.40;12.93;;;;;;;;;;3586930;40;20075;-66
2021/07/11 02:16:04;;;;;;;19.48;13.10;;;;;;;;;;3584847;40;20770;-66
2021/07/11 02:18:30;;;;;;;22.45;13.20;;;;;;;;;;3583481;40;20043;-66
2021/07/11 02:20:55;;;;;;;22.13;13.60;;;;;;;;;;3584529;40;20129;-66
2021/07/11 02:23:23;;;;;;;23.80;14.07;;;;;;;;;;3585032;40;20043;-66
2021/07/11 02:25:48;;;;;;;24.58;13.82;;;;;;;;;;3582805;40;20032;-66
2021/07/11 02:28:14;;;;;;;20.17;14.38;;;;;;;;;;3584857;40;20048;-66
2021/07/11 02:30:41;;;;;;;19.45;13.18;;;;;;;;;;3583250;40;20044;-66
2021/07/11 02:33:11;;;;;;;23.10;13.65;;;;;;;;;;3583624;40;20028;-66
2021/07/11 02:35:37;;;;;;;21.60;15.10;;;;;;;;;;3581782;40;20025;-66
2021/07/11 02:38:03;;;;;;;18.85;12.88;;;;;;;;;;3583945;40;20129;-66
2021/07/11 02:40:29;;;;;;;21.65;14.32;;;;;;;;;;3584434;39;20040;-66
2021/07/11 02:42:58;;;;;;;19.00;13.40;;;;;;;;;;3585062;40;20032;-66
2021/07/11 02:45:24;;;;;;;20.40;13.93;;;;;;;;;;3581761;40;20036;-66
2021/07/11 02:47:49;;;;;;;19.43;13.73;;;;;;;;;;3585015;40;20076;-66
2021/07/11 02:50:15;;;;;;;20.48;13.77;;;;;;;;;;3585837;40;20034;-66
2021/07/11 02:52:44;;;;;;;23.88;13.90;;;;;;;;;;3582472;40;20117;-66
2021/07/11 02:55:13;;;;;;;20.60;13.23;;;;;;;;;;3582553;40;20528;-66
2021/07/11 02:57:38;;;;;;;20.98;13.45;;;;;;;;;;3582201;39;20035;-66
2021/07/11 03:00:05;;;;;;;18.17;13.52;;;;;;;;;;3582127;40;20055;-66
2021/07/11 03:02:36;;;;;;;21.38;13.50;;;;;;;;;;3591532;39;20036;-65
2021/07/11 03:05:02;;;;;;;23.92;13.13;;;;;;;;;;3584096;40;20027;-66
2021/07/11 03:07:27;;;;;;;21.17;12.88;;;;;;;;;;3581989;40;20052;-66
2021/07/11 03:09:53;;;;;;;25.98;12.90;;;;;;;;;;3584661;40;20021;-66
2021/07/11 03:12:23;;;;;;;20.92;12.90;;;;;;;;;;3582616;40;20052;-66
2021/07/11 03:14:48;;;;;;;17.87;12.70;;;;;;;;;;3583490;40;20052;-65
2021/07/11 03:17:14;;;;;;;20.55;12.88;;;;;;;;;;3591234;39;20028;-66
2021/07/11 03:19:40;;;;;;;27.58;12.73;;;;;;;;;;3582814;40;20048;-66
2021/07/11 03:22:09;;;;;;;21.38;13.20;;;;;;;;;;3582010;40;20068;-66
2021/07/11 03:24:37;;;;;;;19.92;13.20;;;;;;;;;;3586021;40;20046;-67
2021/07/11 03:27:04;;;;;;;22.50;13.40;;;;;;;;;;3591236;39;20084;-67
2021/07/11 03:29:31;;;;;;;20.63;13.32;;;;;;;;;;3582674;40;20032;-61
2021/07/11 03:31:56;;;;;;;20.00;13.15;;;;;;;;;;3583119;40;20412;-62
2021/07/11 03:34:22;;;;;;;19.27;12.93;;;;;;;;;;3584467;40;20049;-61
2021/07/11 03:36:47;;;;;;;19.77;13.98;;;;;;;;;;3582961;40;20317;-62
2021/07/11 03:39:15;;;;;;;20.95;12.85;;;;;;;;;;3593053;39;20033;-62
2021/07/11 03:41:40;;;;;;;18.90;13.60;;;;;;;;;;3583621;40;20455;-62
2021/07/11 03:44:08;;;;;;;22.45;13.25;;;;;;;;;;3581738;40;20036;-62
2021/07/11 03:46:33;;;;;;;21.77;13.65;;;;;;;;;;3584077;40;20036;-61
2021/07/11 03:48:59;;;;;;;18.83;12.90;;;;;;;;;;3582427;40;20036;-62
2021/07/11 03:51:24;;;;;;;19.97;13.20;;;;;;;;;;3582896;40;20711;-62
2021/07/11 03:53:49;;;;;;;19.83;13.15;;;;;;;;;;3584741;40;20036;-62
2021/07/11 03:56:14;;;;;;;28.23;14.23;;;;;;;;;;3583476;40;20036;-62
2021/07/11 03:58:40;;;;;;;27.30;14.20;;;;;;;;;;3582012;40;20099;-61
2021/07/11 04:01:05;;;;;;;22.45;13.73;;;;;;;;;;3581992;40;20539;-62
2021/07/11 04:03:30;;;;;;;18.23;12.93;;;;;;;;;;3584580;40;20048;-61
2021/07/11 04:05:55;;;;;;;17.87;12.27;;;;;;;;;;3583740;40;20571;-61
2021/07/11 04:08:21;;;;;;;20.20;13.50;;;;;;;;;;3584228;40;20072;-61
2021/07/11 04:10:46;;;;;;;22.30;13.07;;;;;;;;;;3586260;40;20923;-61
2021/07/11 04:13:11;;;;;;;24.40;13.20;;;;;;;;;;3585507;40;20039;-62
2021/07/11 04:15:36;;;;;;;15.73;11.67;;;;;;;;;;3585992;40;20023;-62
2021/07/11 04:18:01;;;;;;;19.13;13.57;;;;;;;;;;3585654;40;20029;-61
2021/07/11 04:20:27;;;;;;;18.00;12.20;;;;;;;;;;3587592;40;20177;-62
2021/07/11 04:22:52;;;;;;;16.67;12.30;;;;;;;;;;3585912;39;21017;-61
2021/07/11 04:25:17;;;;;;;27.50;13.50;;;;;;;;;;3584979;40;20449;-62
2021/07/11 04:27:42;;;;;;;16.60;11.67;;;;;;;;;;3587284;40;20038;-62
2021/07/11 04:30:08;;;;;;;20.83;12.47;;;;;;;;;;3586087;40;20291;-62
2021/07/11 04:32:33;;;;;;;15.57;11.83;;;;;;;;;;3587170;40;20312;-61
2021/07/11 04:34:58;;;;;;;21.20;13.57;;;;;;;;;;3585556;40;20345;-62
2021/07/11 04:37:23;;;;;;;20.90;12.43;;;;;;;;;;3582938;40;20278;-62
2021/07/11 04:39:49;;;;;;;20.05;12.38;;;;;;;;;;3592853;39;20025;-62
2021/07/11 04:42:14;;;;;;;19.67;11.70;;;;;;;;;;3583152;40;20033;-62
2021/07/11 04:44:39;;;;;;;17.20;12.20;;;;;;;;;;3586143;40;20012;-62
2021/07/11 04:47:04;;;;;;;18.00;11.60;;;;;;;;;;3585929;40;20088;-62
2021/07/11 04:49:30;;;;;;;15.87;11.63;;;;;;;;;;3583556;40;20032;-62
2021/07/11 04:51:55;;;;;;;19.48;12.10;;;;;;;;;;3583591;40;20255;-62
2021/07/11 04:54:20;;;;;;;19.83;12.97;;;;;;;;;;3585289;40;20028;-62
2021/07/11 04:56:45;;;;;;;20.52;12.93;;;;;;;;;;3585754;40;20025;-62
2021/07/11 04:59:11;;;;;;;23.17;12.15;;;;;;;;;;3583682;40;20040;-63
2021/07/11 05:01:36;;;;;;;21.93;11.37;;;;;;;;;;3585658;40;20043;-62
2021/07/11 05:04:01;;;;;;;20.67;12.00;;;;;;;;;;3587225;40;20667;-62
2021/07/11 05:06:26;;;;;;;15.87;12.43;;;;;;;;;;3586420;40;20046;-62
2021/07/11 05:08:51;;;;;;;16.53;11.67;;;;;;;;;;3584112;40;20286;-62
2021/07/11 05:11:17;;;;;;;21.10;11.90;;;;;;;;;;3588234;40;20151;-62
2021/07/11 05:13:42;;;;;;;19.45;11.88;;;;;;;;;;3584536;40;20044;-62
2021/07/11 05:16:08;;;;;;;15.03;11.10;;;;;;;;;;3583429;40;20036;-62
2021/07/11 05:18:33;;;;;;;15.03;10.70;;;;;;;;;;3585177;39;20369;-62
2021/07/11 05:20:58;;;;;;;16.40;11.20;;;;;;;;;;3583774;40;20294;-62
2021/07/11 05:23:23;;;;;;;11.47;10.03;;;;;;;;;;3585715;40;20028;-62
2021/07/11 05:25:48;;;;;;;17.53;11.13;;;;;;;;;;3585384;40;20072;-62
2021/07/11 05:28:14;;;;;;;15.87;11.03;;;;;;;;;;3585135;40;20040;-62
2021/07/11 05:30:39;;;;;;;16.37;10.80;;;;;;;;;;3585282;40;20049;-62
2021/07/11 05:33:04;;;;;;;14.47;10.23;;;;;;;;;;3592774;39;20024;-62
2021/07/11 05:35:29;;;;;;;13.30;10.20;;;;;;;;;;3585746;40;20017;-62
2021/07/11 05:37:54;;;;;;;16.97;10.10;;;;;;;;;;3582980;40;20323;-62
2021/07/11 05:40:20;;;;;;;14.27;9.77;;;;;;;;;;3586490;40;20247;-62
2021/07/11 05:42:46;;;;;;;13.10;9.80;;;;;;;;;;3584652;40;20041;-62
2021/07/11 05:45:11;;;;;;;11.60;9.40;;;;;;;;;;3584948;40;20032;-62
2021/07/11 05:47:37;;;;;;;12.47;9.20;;;;;;;;;;3584659;40;20029;-62
2021/07/11 05:50:02;;;;;;;12.80;10.00;;;;;;;;;;3585573;40;20044;-62
2021/07/11 05:52:28;;;;;;;14.30;9.30;;;;;;;;;;3586155;40;20035;-62
2021/07/11 05:54:53;;;;;;;13.13;9.10;;;;;;;;;;3582565;40;20023;-63
2021/07/11 05:57:19;;;;;;;11.40;8.80;;;;;;;;;;3586374;40;20020;-62
2021/07/11 05:59:44;;;;;;;14.65;9.18;;;;;;;;;;3585861;40;20032;-62
2021/07/11 06:02:09;;;;;;;14.17;8.73;;;;;;;;;;3585013;40;20518;-62
2021/07/11 06:04:34;;;;;;;12.50;8.33;;;;;;;;;;3582272;40;20293;-62
2021/07/11 06:06:59;;;;;;;13.23;8.23;;;;;;;;;;3583830;40;20032;-62
2021/07/11 06:09:24;;;;;;;10.70;8.17;;;;;;;;;;3583886;40;20036;-62
2021/07/11 06:11:50;;;;;;;13.53;8.07;;;;;;;;;;3581935;40;20043;-62
2021/07/11 06:14:15;;;;;;;13.73;7.80;;;;;;;;;;3584072;40;20706;-62
2021/07/11 06:16:41;;;;;;;9.02;7.20;;;;;;;;;;3583075;40;20036;-62
2021/07/11 06:19:06;;;;;;;13.23;7.75;;;;;;;;;;3583808;40;20067;-62
2021/07/11 06:21:31;;;;;;;13.23;7.43;;;;;;;;;;3582951;40;20033;-62
2021/07/11 06:23:56;;;;;;;14.25;7.07;;;;;;;;;;3584922;40;20072;-62
2021/07/11 06:26:22;;;;;;;9.63;7.87;;;;;;;;;;3585169;40;20036;-63
2021/07/11 06:28:47;;;;;;;11.23;7.13;;;;;;;;;;3585118;40;20108;-62
2021/07/11 06:31:12;;;;;;;14.77;7.37;;;;;;;;;;3585425;40;20047;-63
2021/07/11 06:33:37;;;;;;;10.63;6.80;;;;;;;;;;3583167;40;20480;-62
2021/07/11 06:36:02;;;;;;;13.03;7.83;;;;;;;;;;3581795;40;20181;-63
2021/07/11 06:38:28;;;;;;;10.33;6.93;;;;;;;;;;3584140;40;20520;-62
2021/07/11 06:40:53;;;;;;;9.43;6.70;;;;;;;;;;3594914;39;20592;-62
2021/07/11 06:43:18;;;;;;;8.17;6.10;;;;;;;;;;3584851;40;20421;-62
2021/07/11 06:45:44;;;;;;;8.00;6.40;;;;;;;;;;3584029;40;20296;-62
2021/07/11 06:48:09;;;;;;;10.40;6.15;;;;;;;;;;3583497;40;20603;-63
2021/07/11 06:50:36;;;;;;;15.10;6.23;;;;;;;;;;3585167;39;20024;-62
2021/07/11 06:53:02;;;;;;;12.80;6.20;;;;;;;;;;3584362;40;20704;-63
2021/07/11 06:55:27;;;;;;;7.60;5.43;;;;;;;;;;3584381;40;20023;-62
2021/07/11 06:57:52;;;;;;;7.13;5.87;;;;;;;;;;3585402;40;20455;-63
2021/07/11 07:00:17;;;;;;;12.00;5.20;;;;;;;;;;3583743;40;20259;-62
2021/07/11 07:02:43;;;;;;;6.47;4.63;;;;;;;;;;3584693;40;20253;-62
2021/07/11 07:05:08;;;;;;;7.50;5.17;;;;;;;;;;3585081;40;20038;-63
2021/07/11 07:07:35;;;;;;;8.75;4.80;;;;;;;;;;3599460;39;20302;-62
2021/07/11 07:10:00;;;;;;;9.38;4.88;;;;;;;;;;3584291;40;20073;-62
2021/07/11 07:12:25;;;;;;;12.43;4.87;;;;;;;;;;3586506;40;20712;-63
2021/07/11 07:14:51;;;;;;;6.63;4.40;;;;;;;;;;3585440;40;20483;-62
2021/07/11 07:17:17;;;;;;;5.40;4.60;;;;;;;;;;3600623;39;20091;-62
2021/07/11 07:19:42;;;;;;;11.33;4.40;;;;;;;;;;3584766;40;20032;-63
2021/07/11 07:22:08;;;;;;;9.60;4.40;;;;;;;;;;3581303;40;20897;-63
2021/07/11 07:24:33;;;;;;;5.17;3.57;;;;;;;;;;3584669;40;20100;-63
2021/07/11 07:26:59;;;;;;;6.70;4.53;;;;;;;;;;3581944;40;20306;-62
2021/07/11 07:29:24;;;;;;;6.27;3.90;;;;;;;;;;3584708;40;20770;-62
2021/07/11 07:31:50;;;;;;;11.07;4.30;;;;;;;;;;3584227;40;20080;-62
2021/07/11 07:34:15;;;;;;;13.25;4.03;;;;;;;;;;3583302;40;20106;-62
2021/07/11 07:36:40;;;;;;;6.80;4.60;;;;;;;;;;3583740;40;20073;-62
2021/07/11 07:39:06;;;;;;;5.32;4.00;;;;;;;;;;3584444;40;20031;-63
2021/07/11 07:41:31;;;;;;;5.80;4.10;;;;;;;;;;3583973;40;20024;-63
2021/07/11 07:43:56;;;;;;;4.18;3.70;;;;;;;;;;3584033;40;20953;-63
2021/07/11 07:46:21;;;;;;;5.90;3.70;;;;;;;;;;3583069;40;20408;-63
2021/07/11 07:48:47;;;;;;;9.50;3.93;;;;;;;;;;3583448;40;20987;-63
2021/07/11 07:51:12;;;;;;;5.97;3.60;;;;;;;;;;3582256;40;20028;-63
2021/07/11 07:53:37;;;;;;;7.80;4.10;;;;;;;;;;3581147;40;20035;-63
2021/07/11 07:56:02;;;;;;;7.23;4.07;;;;;;;;;;3585999;40;20029;-63
2021/07/11 07:58:27;;;;;;;6.47;3.77;;;;;;;;;;3585335;40;20032;-63
2021/07/11 08:00:54;;;;;;;6.13;4.00;;;;;;;;;;3585594;40;20016;-63
2021/07/11 08:03:19;;;;;;;6.78;3.42;;;;;;;;;;3581707;40;20122;-63
2021/07/11 08:05:44;;;;;;;7.00;3.53;;;;;;;;;;3582775;40;20028;-63
2021/07/11 08:08:10;;;;;;;9.83;3.53;;;;;;;;;;3584065;40;20060;-63
2021/07/11 08:10:35;;;;;;;4.88;3.78;;;;;;;;;;3583985;40;20039;-63
2021/07/11 08:13:00;;;;;;;8.77;3.47;;;;;;;;;;3587359;40;20632;-63
2021/07/11 08:15:25;;;;;;;5.90;3.93;;;;;;;;;;3582266;40;20051;-63
2021/07/11 08:17:51;;;;;;;5.90;3.10;;;;;;;;;;3586174;39;20036;-63
2021/07/11 08:20:16;;;;;;;4.60;3.30;;;;;;;;;;3586168;40;20036;-63
2021/07/11 08:22:41;;;;;;;5.07;3.93;;;;;;;;;;3585183;40;20117;-63
2021/07/11 08:25:07;;;;;;;7.03;3.43;;;;;;;;;;3592971;39;20040;-70
2021/07/11 08:27:32;;;;;;;4.28;3.15;;;;;;;;;;3584920;40;20036;-74
2021/07/11 08:29:57;;;;;;;6.20;3.27;;;;;;;;;;3583827;40;20029;-69
2021/07/11 08:32:23;;;;;;;11.97;3.63;;;;;;;;;;3586878;40;20033;-70
2021/07/11 08:34:48;;;;;;;13.32;7.20;;;;;;;;;;3586885;40;20033;-69
2021/07/11 08:37:14;;;;;;;12.13;3.30;;;;;;;;;;3601831;39;20040;-69
2021/07/11 08:39:39;;;;;;;12.18;7.63;;;;;;;;;;3593154;39;20044;-70
2021/07/11 08:42:04;;;;;;;9.43;4.13;;;;;;;;;;3584664;40;20044;-70
2021/07/11 08:44:29;;;;;;;4.67;3.13;;;;;;;;;;3584904;40;20250;-69
2021/07/11 08:46:54;;;;;;;4.13;2.57;;;;;;;;;;3592702;39;20045;-70
2021/07/11 08:49:20;;;;;;;5.97;2.57;;;;;;;;;;3589140;40;20262;-70
2021/07/11 08:51:45;;;;;;;6.30;2.53;;;;;;;;;;3591409;39;20341;-69
2021/07/11 08:54:11;;;;;;;3.03;2.63;;;;;;;;;;3593256;39;20387;-69
2021/07/11 08:56:36;;;;;;;2.67;2.45;;;;;;;;;;3585306;40;20033;-69
2021/07/11 08:59:02;;;;;;;3.57;2.40;;;;;;;;;;3585468;40;20017;-66
2021/07/11 09:01:27;;;;;;;14.27;5.10;;;;;;;;;;3586028;40;20029;-67
2021/07/11 09:03:52;;;;;;;7.43;4.53;;;;;;;;;;3584482;40;20028;-68
2021/07/11 09:06:17;;;;;;;9.63;3.33;;;;;;;;;;3587071;40;20032;-69
2021/07/11 09:08:43;;;;;;;4.87;3.27;;;;;;;;;;3585299;40;20050;-68
2021/07/11 09:11:08;;;;;;;5.47;2.75;;;;;;;;;;3587343;40;20023;-68
2021/07/11 09:13:33;;;;;;;3.63;2.60;;;;;;;;;;3586995;40;20093;-68
2021/07/11 09:15:58;;;;;;;8.33;2.80;;;;;;;;;;3586071;40;20044;-68
2021/07/11 09:18:23;;;;;;;3.10;2.50;;;;;;;;;;3587506;40;20345;-68
2021/07/11 09:20:49;;;;;;;4.47;2.63;;;;;;;;;;3593495;39;20025;-68
2021/07/11 09:23:14;;;;;;;9.65;3.03;;;;;;;;;;3585704;40;20032;-61
2021/07/11 09:25:39;;;;;;;5.30;3.90;;;;;;;;;;3585233;40;20575;-62
2021/07/11 09:28:05;;;;;;;5.27;2.70;;;;;;;;;;3584197;40;20060;-61
2021/07/11 09:30:30;;;;;;;8.07;5.80;;;;;;;;;;3586725;40;20095;-61
2021/07/11 09:32:55;;;;;;;5.93;4.03;;;;;;;;;;3586317;40;20459;-62
2021/07/11 09:35:21;;;;;;;10.55;4.75;;;;;;;;;;3584957;40;20024;-62
2021/07/11 09:37:47;;;;;;;5.57;3.40;;;;;;;;;;3585325;40;20017;-62
2021/07/11 09:40:12;;;;;;;33.38;21.58;;;;;;;;;;3591649;39;20850;-61
2021/07/11 09:42:37;;;;;;;9.80;4.00;;;;;;;;;;3584827;40;20024;-61
2021/07/11 09:45:02;;;;;;;6.90;2.87;;;;;;;;;;3592497;39;20337;-63
2021/07/11 09:47:28;;;;;;;4.77;2.20;;;;;;;;;;3584405;40;20036;-66
2021/07/11 09:49:53;;;;;;;8.77;2.40;;;;;;;;;;3594059;39;20681;-66
2021/07/11 09:52:18;;;;;;;5.57;2.40;;;;;;;;;;3585409;40;20329;-66
2021/07/11 09:54:43;;;;;;;6.13;2.30;;;;;;;;;;3586436;40;20035;-65
2021/07/11 09:57:09;;;;;;;3.43;2.37;;;;;;;;;;3583743;40;20106;-66
2021/07/11 09:59:34;;;;;;;4.03;2.60;;;;;;;;;;3585905;40;20028;-66
2021/07/11 10:02:00;;;;;;;7.07;3.47;;;;;;;;;;3586802;40;20037;-66
2021/07/11 10:04:25;;;;;;;7.10;3.93;;;;;;;;;;3586852;40;20347;-66
2021/07/11 10:06:51;;;;;;;7.50;3.23;;;;;;;;;;3584629;39;20091;-66
2021/07/11 10:09:16;;;;;;;10.18;5.90;;;;;;;;;;3592102;39;20435;-66
2021/07/11 10:11:41;;;;;;;3.47;2.27;;;;;;;;;;3584225;40;20756;-65
2021/07/11 10:14:06;;;;;;;2.57;2.30;;;;;;;;;;3586186;40;20370;-66
2021/07/11 10:16:34;;;;;;;5.40;2.83;;;;;;;;;;3585273;40;20037;-67
2021/07/11 10:18:59;;;;;;;2.75;2.10;;;;;;;;;;3587008;40;20306;-67
2021/07/11 10:21:24;;;;;;;3.30;2.37;;;;;;;;;;3593081;39;20048;-67
2021/07/11 10:23:49;;;;;;;2.57;2.00;;;;;;;;;;3587295;39;20025;-67
2021/07/11 10:26:14;;;;;;;4.10;1.97;;;;;;;;;;3583853;40;20039;-67
2021/07/11 10:28:39;;;;;;;2.97;2.33;;;;;;;;;;3586765;40;20027;-67
2021/07/11 10:31:05;;;;;;;6.77;2.23;;;;;;;;;;3584882;40;20032;-67
2021/07/11 10:33:30;;;;;;;6.73;3.83;;;;;;;;;;3586748;40;20020;-67
2021/07/11 10:35:55;;;;;;;8.40;3.97;;;;;;;;;;3585725;40;20688;-67
2021/07/11 10:38:20;;;;;;;9.70;5.10;;;;;;;;;;3586385;40;20419;-67
2021/07/11 10:40:46;;;;;;;4.47;2.63;;;;;;;;;;3585166;40;20047;-67
2021/07/11 10:43:11;;;;;;;3.00;2.27;;;;;;;;;;3585080;40;20024;-67
2021/07/11 10:45:36;;;;;;;2.37;2.17;;;;;;;;;;3586738;40;20389;-67
2021/07/11 10:48:01;;;;;;;3.97;2.17;;;;;;;;;;3585437;40;20043;-67
2021/07/11 10:50:26;;;;;;;5.13;1.87;;;;;;;;;;3586233;39;20133;-67
2021/07/11 10:52:53;;;;;;;3.50;2.30;;;;;;;;;;3585157;40;20470;-67
2021/07/11 10:55:18;;;;;;;3.75;1.90;;;;;;;;;;3584377;40;20031;-67
2021/07/11 10:57:43;;;;;;;3.57;2.37;;;;;;;;;;3585588;40;20036;-67
2021/07/11 11:00:08;;;;;;;4.53;1.97;;;;;;;;;;3586928;40;20028;-68
2021/07/11 11:02:33;;;;;;;5.27;2.00;;;;;;;;;;3583679;40;20012;-66
2021/07/11 11:04:59;;;;;;;6.10;1.80;;;;;;;;;;3584862;40;20039;-66
2021/07/11 11:07:24;;;;;;;3.45;1.80;;;;;;;;;;3582253;40;20062;-66
2021/07/11 11:09:49;;;;;;;2.30;1.90;;;;;;;;;;3583231;40;20076;-67
2021/07/11 11:12:14;;;;;;;3.03;1.90;;;;;;;;;;3584455;40;20134;-68
2021/07/11 11:14:40;;;;;;;2.50;1.70;;;;;;;;;;3584446;40;20044;-65
2021/07/11 11:17:05;;;;;;;6.93;4.33;;;;;;;;;;3585014;40;20032;-65
2021/07/11 11:19:30;;;;;;;15.00;9.93;;;;;;;;;;3586004;40;20060;-65
2021/07/11 11:21:55;;;;;;;5.03;2.73;;;;;;;;;;3583554;40;20055;-64
2021/07/11 11:24:20;;;;;;;5.93;1.60;;;;;;;;;;3583397;40;20024;-65
2021/07/11 11:26:46;;;;;;;3.40;2.20;;;;;;;;;;3584397;40;20274;-64
2021/07/11 11:29:11;;;;;;;3.53;2.70;;;;;;;;;;3584339;40;20020;-64
2021/07/11 11:36:52;;;;;;;4.93;1.90;;;;;;;;;;3583595;39;20059;-62
2021/07/11 11:39:18;;;;;;;3.00;1.73;;;;;;;;;;3589003;40;20035;-63
2021/07/11 11:41:43;;;;;;;4.05;2.22;;;;;;;;;;3595832;39;20638;-63
2021/07/11 11:44:09;;;;;;;7.97;1.90;;;;;;;;;;3589541;39;20055;-63
2021/07/11 11:46:34;;;;;;;3.42;1.73;;;;;;;;;;3588931;39;20249;-62
2021/07/11 11:48:59;;;;;;;4.00;2.10;;;;;;;;;;3588790;40;20105;-64
2021/07/11 11:51:25;;;;;;;2.73;1.80;;;;;;;;;;3588762;40;20262;-62
2021/07/11 11:53:50;;;;;;;2.37;1.60;;;;;;;;;;3589466;39;20031;-62
2021/07/11 11:56:15;;;;;;;5.23;1.80;;;;;;;;;;3589513;40;20265;-63
2021/07/11 11:58:40;;;;;;;1.58;1.48;;;;;;;;;;3589028;40;20036;-62
2021/07/11 12:01:06;;;;;;;1.93;1.73;;;;;;;;;;3587757;40;20036;-62
2021/07/11 12:03:31;;;;;;;5.40;1.80;;;;;;;;;;3588955;40;20111;-63
2021/07/11 12:05:56;;;;;;;2.57;1.60;;;;;;;;;;3588437;40;20073;-67
2021/07/11 12:08:21;;;;;;;3.23;2.00;;;;;;;;;;3589169;40;20038;-66
2021/07/11 12:10:47;;;;;;;2.63;1.83;;;;;;;;;;3588505;40;20036;-67
2021/07/11 12:13:12;;;;;;;3.10;1.63;;;;;;;;;;3587661;40;20446;-67
2021/07/11 12:15:38;;;;;;;2.80;1.70;;;;;;;;;;3588807;40;20047;-67
2021/07/11 12:18:03;;;;;;;4.70;1.83;;;;;;;;;;3589459;40;20117;-67
2021/07/11 12:20:28;;;;;;;1.60;1.50;;;;;;;;;;3588173;40;20047;-66
2021/07/11 12:22:53;;;;;;;2.13;1.57;;;;;;;;;;3587088;40;20072;-67
2021/07/11 12:25:22;;;;;;;1.93;1.73;;;;;;;;;;3587876;40;20028;-67
2021/07/11 12:27:56;;;;;;;3.33;1.50;;;;;;;;;;3589659;39;20609;-67
2021/07/11 12:30:21;;;;;;;4.25;1.70;;;;;;;;;;3589380;40;20031;-67
2021/07/11 12:32:46;;;;;;;3.20;1.90;;;;;;;;;;3590464;39;20040;-67
2021/07/11 12:35:12;;;;;;;2.13;1.80;;;;;;;;;;3590160;39;20280;-67
2021/07/11 12:37:37;;;;;;;4.67;1.60;;;;;;;;;;3589962;40;20254;-67
2021/07/11 12:40:02;;;;;;;2.97;1.80;;;;;;;;;;3588374;40;20024;-62
2021/07/11 12:42:28;;;;;;;6.20;4.57;;;;;;;;;;3589733;40;20281;-62
2021/07/11 12:44:54;;;;;;;11.25;5.45;;;;;;;;;;3589902;39;20035;-62
2021/07/11 12:47:19;;;;;;;6.22;3.67;;;;;;;;;;3589237;40;20024;-62
2021/07/11 12:49:45;;;;;;;4.30;3.47;;;;;;;;;;3589957;40;20028;-62
2021/07/11 12:52:12;;;;;;;3.30;1.97;;;;;;;;;;3588322;40;20028;-62
2021/07/11 12:54:37;;;;;;;4.60;1.80;;;;;;;;;;3589384;40;20297;-62
2021/07/11 12:57:03;;;;;;;5.13;1.50;;;;;;;;;;3590342;40;20905;-62
2021/07/11 12:59:29;;;;;;;2.28;1.60;;;;;;;;;;3590378;39;20655;-62
2021/07/11 13:01:54;;;;;;;1.58;1.48;;;;;;;;;;3590595;39;20043;-62
2021/07/11 13:04:19;;;;;;;2.17;1.40;;;;;;;;;;3590679;40;20030;-62
2021/07/11 13:06:45;;;;;;;1.80;1.50;;;;;;;;;;3589922;40;20717;-62
2021/07/11 13:09:10;;;;;;;2.17;1.70;;;;;;;;;;3590221;40;20732;-62
2021/07/11 13:11:35;;;;;;;4.73;1.60;;;;;;;;;;3590648;40;20107;-62
2021/07/11 13:14:00;;;;;;;4.73;1.70;;;;;;;;;;3590412;40;20615;-62
2021/07/11 13:16:26;;;;;;;1.83;1.50;;;;;;;;;;3591105;39;20113;-62
2021/07/11 13:18:51;;;;;;;8.13;1.50;;;;;;;;;;3588717;40;20035;-62
2021/07/11 13:21:17;;;;;;;5.17;1.83;;;;;;;;;;3591530;39;20087;-67
2021/07/11 13:23:42;;;;;;;5.13;1.60;;;;;;;;;;3590865;40;20286;-67
2021/07/11 13:26:07;;;;;;;5.37;1.47;;;;;;;;;;3590951;40;20118;-67
2021/07/11 13:28:33;;;;;;;4.43;1.50;;;;;;;;;;3589604;40;20097;-67
2021/07/11 13:30:58;;;;;;;1.88;1.42;;;;;;;;;;3589505;40;20032;-67
2021/07/11 13:33:23;;;;;;;2.77;1.47;;;;;;;;;;3591674;40;20029;-67
2021/07/11 13:35:49;;;;;;;2.60;1.40;;;;;;;;;;3591373;40;20046;-68
2021/07/11 13:38:14;;;;;;;7.63;3.40;;;;;;;;;;3591481;40;20032;-67
2021/07/11 13:40:39;;;;;;;2.77;1.70;;;;;;;;;;3591178;39;20080;-66
2021/07/11 13:43:04;;;;;;;12.98;7.35;;;;;;;;;;3589069;40;20144;-67
2021/07/11 13:45:30;;;;;;;9.77;6.30;;;;;;;;;;3591195;40;20025;-66
2021/07/11 13:47:55;;;;;;;4.57;2.50;;;;;;;;;;3591014;40;20074;-66
2021/07/11 13:50:20;;;;;;;1.47;1.37;;;;;;;;;;3590947;40;20047;-67
2021/07/11 13:52:45;;;;;;;2.57;1.50;;;;;;;;;;3590842;40;20028;-67
2021/07/11 13:55:11;;;;;;;2.23;1.60;;;;;;;;;;3589409;40;20085;-67
2021/07/11 13:57:36;;;;;;;1.77;1.60;;;;;;;;;;3590677;40;20320;-67
2021/07/11 14:00:02;;;;;;;2.95;1.60;;;;;;;;;;3590449;39;20086;-66
2021/07/11 14:02:27;;;;;;;1.67;1.57;;;;;;;;;;3590856;40;20101;-65
2021/07/11 14:04:52;;;;;;;2.57;1.50;;;;;;;;;;3587472;40;20043;-65
2021/07/11 14:07:17;;;;;;;1.80;1.67;;;;;;;;;;3587934;40;20108;-65
2021/07/11 14:09:43;;;;;;;2.00;1.50;;;;;;;;;;3590142;40;20032;-65
2021/07/11 14:12:09;;;;;;;5.80;1.70;;;;;;;;;;3589761;40;20044;-65
2021/07/11 14:14:35;;;;;;;2.53;1.55;;;;;;;;;;3590236;39;20284;-65
2021/07/11 14:17:00;;;;;;;3.40;1.63;;;;;;;;;;3589551;40;20028;-65
2021/07/11 14:19:25;;;;;;;3.23;1.40;;;;;;;;;;3587385;40;20274;-66
2021/07/11 14:21:50;;;;;;;2.67;1.70;;;;;;;;;;3590102;40;20787;-69
2021/07/11 14:24:16;;;;;;;2.07;1.70;;;;;;;;;;3590059;40;20032;-67
2021/07/11 14:26:41;;;;;;;3.10;1.87;;;;;;;;;;3587566;40;20113;-67